sensor_id;sensor_type;location;lat;lon;timestamp;P1;durP1;ratioP1;P2;durP2;ratioP2
22211;SDS011;11275;52.488;13.462;2023-04-09T00:02:11;23.48;;;18.77;;
22211;SDS011;11275;52.488;13.462;2023-04-09T00:04:36;26.08;;;18.90;;
22211;SDS011;11275;52.488;13.462;2023-04-09T00:07:02;22.90;;;18.45;;
22211;SDS011;11275;52.488;13.462;2023-04-09T00:09:27;21.48;;;17.38;;
22211;SDS011;11275;52.488;13.462;2023-04-09T00:11:53;20.80;;;17.67;;
22211;SDS011;11275;52.488;13.462;2023-04-09T00:14:20;22.45;;;17.85;;
22211;SDS011;11275;52.488;13.462;2023-04-09T00:16:45;24.55;;;17.80;;
22211;SDS011;11275;52.488;13.462;2023-04-09T00:19:11;22.38;;;18.40;;
22211;SDS011;11275;52.488;13.462;2023-04-09T00:21:37;22.05;;;17.50;;
22211;SDS011;11275;52.488;13.462;2023-04-09T00:24:02;21.83;;;18.13;;
22211;SDS011;11275;52.488;13.462;2023-04-09T00:26:29;22.13;;;18.08;;
22211;SDS011;11275;52.488;13.462;2023-04-09T00:28:55;21.48;;;17.90;;
22211;SDS011;11275;52.488;13.462;2023-04-09T00:31:21;22.92;;;18.05;;
22211;SDS011;11275;52.488;13.462;2023-04-09T00:33:46;24.92;;;19.52;;
22211;SDS011;11275;52.488;13.462;2023-04-09T00:36:12;25.88;;;19.52;;
22211;SDS011;11275;52.488;13.462;2023-04-09T00:38:37;23.58;;;18.92;;
22211;SDS011;11275;52.488;13.462;2023-04-09T00:41:03;24.60;;;19.42;;
22211;SDS011;11275;52.488;13.462;2023-04-09T00:43:29;23.55;;;19.52;;
22211;SDS011;11275;52.488;13.462;2023-04-09T00:45:55;24.25;;;19.17;;
22211;SDS011;11275;52.488;13.462;2023-04-09T00:48:22;24.60;;;19.65;;
22211;SDS011;11275;52.488;13.462;2023-04-09T00:50:47;27.80;;;21.73;;
22211;SDS011;11275;52.488;13.462;2023-04-09T00:53:13;28.13;;;22.30;;
22211;SDS011;11275;52.488;13.462;2023-04-09T00:55:39;25.08;;;19.50;;
22211;SDS011;11275;52.488;13.462;2023-04-09T00:58:05;22.52;;;18.52;;
22211;SDS011;11275;52.488;13.462;2023-04-09T01:00:31;22.45;;;18.52;;
22211;SDS011;11275;52.488;13.462;2023-04-09T01:02:57;21.98;;;18.33;;
22211;SDS011;11275;52.488;13.462;2023-04-09T01:05:27;23.05;;;18.73;;
22211;SDS011;11275;52.488;13.462;2023-04-09T01:11:10;25.20;;;19.52;;
22211;SDS011;11275;52.488;13.462;2023-04-09T01:14:04;24.88;;;19.35;;
22211;SDS011;11275;52.488;13.462;2023-04-09T01:16:31;27.35;;;19.67;;
22211;SDS011;11275;52.488;13.462;2023-04-09T01:19:05;26.95;;;19.80;;
22211;SDS011;11275;52.488;13.462;2023-04-09T01:21:39;25.40;;;20.35;;
22211;SDS011;11275;52.488;13.462;2023-04-09T01:26:53;28.17;;;21.23;;
22211;SDS011;11275;52.488;13.462;2023-04-09T01:29:24;25.75;;;19.20;;
22211;SDS011;11275;52.488;13.462;2023-04-09T01:31:50;26.35;;;20.10;;
22211;SDS011;11275;52.488;13.462;2023-04-09T01:34:18;26.10;;;20.05;;
22211;SDS011;11275;52.488;13.462;2023-04-09T01:36:46;25.77;;;18.83;;
22211;SDS011;11275;52.488;13.462;2023-04-09T01:39:19;25.02;;;20.30;;
22211;SDS011;11275;52.488;13.462;2023-04-09T01:41:45;25.70;;;20.30;;
22211;SDS011;11275;52.488;13.462;2023-04-09T01:44:12;25.40;;;20.25;;
22211;SDS011;11275;52.488;13.462;2023-04-09T01:46:38;26.75;;;21.23;;
22211;SDS011;11275;52.488;13.462;2023-04-09T01:49:05;25.90;;;20.35;;
22211;SDS011;11275;52.488;13.462;2023-04-09T01:51:31;24.65;;;19.85;;
22211;SDS011;11275;52.488;13.462;2023-04-09T01:53:58;26.52;;;20.15;;
22211;SDS011;11275;52.488;13.462;2023-04-09T01:56:24;26.30;;;19.90;;
22211;SDS011;11275;52.488;13.462;2023-04-09T01:58:50;25.75;;;20.85;;
22211;SDS011;11275;52.488;13.462;2023-04-09T02:01:21;26.55;;;20.73;;
22211;SDS011;11275;52.488;13.462;2023-04-09T02:03:53;25.88;;;20.40;;
22211;SDS011;11275;52.488;13.462;2023-04-09T02:08:51;26.50;;;20.38;;
22211;SDS011;11275;52.488;13.462;2023-04-09T02:11:17;26.42;;;21.00;;
22211;SDS011;11275;52.488;13.462;2023-04-09T02:13:45;27.70;;;20.50;;
22211;SDS011;11275;52.488;13.462;2023-04-09T02:16:12;27.00;;;21.30;;
22211;SDS011;11275;52.488;13.462;2023-04-09T02:18:39;26.60;;;20.98;;
22211;SDS011;11275;52.488;13.462;2023-04-09T02:21:05;25.88;;;21.20;;
22211;SDS011;11275;52.488;13.462;2023-04-09T02:23:31;26.92;;;20.75;;
22211;SDS011;11275;52.488;13.462;2023-04-09T02:25:57;26.35;;;20.83;;
22211;SDS011;11275;52.488;13.462;2023-04-09T02:28:23;25.20;;;20.35;;
22211;SDS011;11275;52.488;13.462;2023-04-09T02:30:49;26.10;;;20.20;;
22211;SDS011;11275;52.488;13.462;2023-04-09T02:33:14;27.40;;;20.95;;
22211;SDS011;11275;52.488;13.462;2023-04-09T02:35:40;28.30;;;19.20;;
22211;SDS011;11275;52.488;13.462;2023-04-09T02:38:06;25.98;;;20.23;;
22211;SDS011;11275;52.488;13.462;2023-04-09T02:40:37;26.27;;;19.77;;
22211;SDS011;11275;52.488;13.462;2023-04-09T02:43:06;26.48;;;19.63;;
22211;SDS011;11275;52.488;13.462;2023-04-09T02:45:32;27.27;;;21.15;;
22211;SDS011;11275;52.488;13.462;2023-04-09T02:47:57;28.30;;;23.08;;
22211;SDS011;11275;52.488;13.462;2023-04-09T02:50:23;27.55;;;22.20;;
22211;SDS011;11275;52.488;13.462;2023-04-09T02:52:49;26.63;;;21.38;;
22211;SDS011;11275;52.488;13.462;2023-04-09T02:55:15;26.38;;;20.95;;
22211;SDS011;11275;52.488;13.462;2023-04-09T02:57:42;26.13;;;21.23;;
22211;SDS011;11275;52.488;13.462;2023-04-09T03:00:08;26.45;;;21.10;;
22211;SDS011;11275;52.488;13.462;2023-04-09T03:02:34;24.17;;;20.30;;
22211;SDS011;11275;52.488;13.462;2023-04-09T03:05:00;26.38;;;20.70;;
22211;SDS011;11275;52.488;13.462;2023-04-09T03:07:25;25.73;;;20.52;;
22211;SDS011;11275;52.488;13.462;2023-04-09T03:09:51;30.40;;;21.15;;
22211;SDS011;11275;52.488;13.462;2023-04-09T03:12:16;28.63;;;21.40;;
22211;SDS011;11275;52.488;13.462;2023-04-09T03:14:42;27.33;;;21.85;;
22211;SDS011;11275;52.488;13.462;2023-04-09T03:17:07;26.83;;;20.52;;
22211;SDS011;11275;52.488;13.462;2023-04-09T03:19:33;26.90;;;21.83;;
22211;SDS011;11275;52.488;13.462;2023-04-09T03:21:59;26.50;;;21.33;;
22211;SDS011;11275;52.488;13.462;2023-04-09T03:24:24;28.70;;;21.77;;
22211;SDS011;11275;52.488;13.462;2023-04-09T03:26:50;27.23;;;21.13;;
22211;SDS011;11275;52.488;13.462;2023-04-09T03:29:15;27.13;;;21.40;;
22211;SDS011;11275;52.488;13.462;2023-04-09T03:31:41;29.42;;;21.42;;
22211;SDS011;11275;52.488;13.462;2023-04-09T03:34:06;26.95;;;21.02;;
22211;SDS011;11275;52.488;13.462;2023-04-09T03:36:32;25.50;;;20.92;;
22211;SDS011;11275;52.488;13.462;2023-04-09T03:38:58;27.77;;;21.60;;
22211;SDS011;11275;52.488;13.462;2023-04-09T03:41:24;27.02;;;22.25;;
22211;SDS011;11275;52.488;13.462;2023-04-09T03:43:50;26.70;;;20.85;;
22211;SDS011;11275;52.488;13.462;2023-04-09T03:46:16;28.80;;;20.95;;
22211;SDS011;11275;52.488;13.462;2023-04-09T03:48:42;26.35;;;20.50;;
22211;SDS011;11275;52.488;13.462;2023-04-09T03:51:12;25.73;;;20.92;;
22211;SDS011;11275;52.488;13.462;2023-04-09T03:53:38;28.42;;;21.90;;
22211;SDS011;11275;52.488;13.462;2023-04-09T03:56:04;25.40;;;20.15;;
22211;SDS011;11275;52.488;13.462;2023-04-09T03:58:30;29.02;;;21.35;;
22211;SDS011;11275;52.488;13.462;2023-04-09T04:00:56;27.75;;;21.40;;
22211;SDS011;11275;52.488;13.462;2023-04-09T04:03:22;30.63;;;22.30;;
22211;SDS011;11275;52.488;13.462;2023-04-09T04:05:47;30.52;;;21.88;;
22211;SDS011;11275;52.488;13.462;2023-04-09T04:08:13;29.77;;;23.00;;
22211;SDS011;11275;52.488;13.462;2023-04-09T04:10:38;31.33;;;23.92;;
22211;SDS011;11275;52.488;13.462;2023-04-09T04:13:07;30.65;;;24.10;;
22211;SDS011;11275;52.488;13.462;2023-04-09T04:15:33;32.22;;;23.98;;
22211;SDS011;11275;52.488;13.462;2023-04-09T04:18:08;30.92;;;23.35;;
22211;SDS011;11275;52.488;13.462;2023-04-09T04:20:34;29.98;;;23.55;;
22211;SDS011;11275;52.488;13.462;2023-04-09T04:23:01;33.60;;;23.88;;
22211;SDS011;11275;52.488;13.462;2023-04-09T04:25:30;31.42;;;24.00;;
22211;SDS011;11275;52.488;13.462;2023-04-09T04:27:56;31.38;;;24.10;;
22211;SDS011;11275;52.488;13.462;2023-04-09T04:30:22;31.75;;;24.70;;
22211;SDS011;11275;52.488;13.462;2023-04-09T04:32:56;30.13;;;23.27;;
22211;SDS011;11275;52.488;13.462;2023-04-09T04:35:22;26.90;;;21.77;;
22211;SDS011;11275;52.488;13.462;2023-04-09T04:37:48;28.77;;;22.67;;
22211;SDS011;11275;52.488;13.462;2023-04-09T04:40:17;28.90;;;22.55;;
22211;SDS011;11275;52.488;13.462;2023-04-09T04:42:42;26.08;;;21.33;;
22211;SDS011;11275;52.488;13.462;2023-04-09T04:45:08;26.98;;;20.70;;
22211;SDS011;11275;52.488;13.462;2023-04-09T04:47:34;45.75;;;24.35;;
22211;SDS011;11275;52.488;13.462;2023-04-09T04:49:59;91.00;;;28.60;;
22211;SDS011;11275;52.488;13.462;2023-04-09T04:52:25;38.20;;;24.65;;
22211;SDS011;11275;52.488;13.462;2023-04-09T04:54:51;51.78;;;24.05;;
22211;SDS011;11275;52.488;13.462;2023-04-09T04:57:16;98.65;;;28.52;;
22211;SDS011;11275;52.488;13.462;2023-04-09T04:59:42;108.07;;;32.97;;
22211;SDS011;11275;52.488;13.462;2023-04-09T05:02:08;120.38;;;32.92;;
22211;SDS011;11275;52.488;13.462;2023-04-09T05:04:33;119.00;;;28.77;;
22211;SDS011;11275;52.488;13.462;2023-04-09T05:07:05;72.63;;;29.63;;
22211;SDS011;11275;52.488;13.462;2023-04-09T05:09:30;51.70;;;23.63;;
22211;SDS011;11275;52.488;13.462;2023-04-09T05:11:56;61.70;;;25.05;;
22211;SDS011;11275;52.488;13.462;2023-04-09T05:14:22;92.32;;;26.25;;
22211;SDS011;11275;52.488;13.462;2023-04-09T05:16:49;49.05;;;23.85;;
22211;SDS011;11275;52.488;13.462;2023-04-09T05:19:14;38.65;;;23.33;;
22211;SDS011;11275;52.488;13.462;2023-04-09T05:21:40;44.95;;;23.65;;
22211;SDS011;11275;52.488;13.462;2023-04-09T05:24:06;49.35;;;23.77;;
22211;SDS011;11275;52.488;13.462;2023-04-09T05:26:31;141.32;;;32.72;;
22211;SDS011;11275;52.488;13.462;2023-04-09T05:28:57;146.20;;;30.50;;
22211;SDS011;11275;52.488;13.462;2023-04-09T05:31:23;121.65;;;30.27;;
22211;SDS011;11275;52.488;13.462;2023-04-09T05:33:48;103.90;;;26.45;;
22211;SDS011;11275;52.488;13.462;2023-04-09T05:36:15;91.95;;;27.20;;
22211;SDS011;11275;52.488;13.462;2023-04-09T05:38:41;118.82;;;31.80;;
22211;SDS011;11275;52.488;13.462;2023-04-09T05:41:07;136.48;;;32.75;;
22211;SDS011;11275;52.488;13.462;2023-04-09T05:43:33;65.10;;;26.58;;
22211;SDS011;11275;52.488;13.462;2023-04-09T05:45:59;75.75;;;25.15;;
22211;SDS011;11275;52.488;13.462;2023-04-09T05:48:25;97.68;;;28.35;;
22211;SDS011;11275;52.488;13.462;2023-04-09T05:50:51;46.08;;;24.40;;
22211;SDS011;11275;52.488;13.462;2023-04-09T05:53:17;66.28;;;26.92;;
22211;SDS011;11275;52.488;13.462;2023-04-09T05:55:44;96.47;;;29.90;;
22211;SDS011;11275;52.488;13.462;2023-04-09T05:58:10;101.20;;;28.40;;
22211;SDS011;11275;52.488;13.462;2023-04-09T06:00:37;52.58;;;23.27;;
22211;SDS011;11275;52.488;13.462;2023-04-09T06:03:03;55.17;;;23.75;;
22211;SDS011;11275;52.488;13.462;2023-04-09T06:05:29;42.40;;;21.38;;
22211;SDS011;11275;52.488;13.462;2023-04-09T06:07:55;42.35;;;23.63;;
22211;SDS011;11275;52.488;13.462;2023-04-09T06:10:21;45.33;;;22.10;;
22211;SDS011;11275;52.488;13.462;2023-04-09T06:12:46;34.78;;;22.40;;
22211;SDS011;11275;52.488;13.462;2023-04-09T06:15:12;31.73;;;21.63;;
22211;SDS011;11275;52.488;13.462;2023-04-09T06:17:37;30.83;;;22.83;;
22211;SDS011;11275;52.488;13.462;2023-04-09T06:20:03;32.30;;;23.17;;
22211;SDS011;11275;52.488;13.462;2023-04-09T06:22:30;32.83;;;23.95;;
22211;SDS011;11275;52.488;13.462;2023-04-09T06:24:55;31.88;;;23.35;;
22211;SDS011;11275;52.488;13.462;2023-04-09T06:27:21;30.75;;;22.63;;
22211;SDS011;11275;52.488;13.462;2023-04-09T06:29:46;31.98;;;23.15;;
22211;SDS011;11275;52.488;13.462;2023-04-09T06:32:12;29.98;;;22.08;;
22211;SDS011;11275;52.488;13.462;2023-04-09T06:34:38;29.50;;;22.00;;
22211;SDS011;11275;52.488;13.462;2023-04-09T06:37:03;31.25;;;22.45;;
22211;SDS011;11275;52.488;13.462;2023-04-09T06:39:29;29.90;;;21.60;;
22211;SDS011;11275;52.488;13.462;2023-04-09T06:41:55;28.92;;;21.88;;
22211;SDS011;11275;52.488;13.462;2023-04-09T06:44:20;30.77;;;23.25;;
22211;SDS011;11275;52.488;13.462;2023-04-09T06:46:48;30.70;;;22.27;;
22211;SDS011;11275;52.488;13.462;2023-04-09T06:49:14;29.27;;;22.40;;
22211;SDS011;11275;52.488;13.462;2023-04-09T06:51:39;27.98;;;21.73;;
22211;SDS011;11275;52.488;13.462;2023-04-09T06:54:05;28.33;;;20.98;;
22211;SDS011;11275;52.488;13.462;2023-04-09T06:56:31;29.85;;;22.15;;
22211;SDS011;11275;52.488;13.462;2023-04-09T06:58:57;31.25;;;23.83;;
22211;SDS011;11275;52.488;13.462;2023-04-09T07:01:22;27.73;;;22.83;;
22211;SDS011;11275;52.488;13.462;2023-04-09T07:03:49;29.45;;;23.08;;
22211;SDS011;11275;52.488;13.462;2023-04-09T07:06:15;30.98;;;23.40;;
22211;SDS011;11275;52.488;13.462;2023-04-09T07:08:40;28.45;;;22.05;;
22211;SDS011;11275;52.488;13.462;2023-04-09T07:11:06;29.27;;;22.58;;
22211;SDS011;11275;52.488;13.462;2023-04-09T07:13:31;27.02;;;21.38;;
22211;SDS011;11275;52.488;13.462;2023-04-09T07:15:57;28.20;;;22.38;;
22211;SDS011;11275;52.488;13.462;2023-04-09T07:18:23;30.00;;;22.85;;
22211;SDS011;11275;52.488;13.462;2023-04-09T07:20:48;29.20;;;22.17;;
22211;SDS011;11275;52.488;13.462;2023-04-09T07:23:15;27.60;;;22.17;;
22211;SDS011;11275;52.488;13.462;2023-04-09T07:25:41;28.02;;;21.58;;
22211;SDS011;11275;52.488;13.462;2023-04-09T07:28:07;26.20;;;21.27;;
22211;SDS011;11275;52.488;13.462;2023-04-09T07:30:33;26.98;;;21.65;;
22211;SDS011;11275;52.488;13.462;2023-04-09T07:32:59;26.67;;;21.38;;
22211;SDS011;11275;52.488;13.462;2023-04-09T07:35:25;27.80;;;22.23;;
22211;SDS011;11275;52.488;13.462;2023-04-09T07:37:50;28.05;;;22.33;;
22211;SDS011;11275;52.488;13.462;2023-04-09T07:40:16;25.77;;;20.98;;
22211;SDS011;11275;52.488;13.462;2023-04-09T07:42:42;25.90;;;21.48;;
22211;SDS011;11275;52.488;13.462;2023-04-09T07:45:07;27.58;;;21.52;;
22211;SDS011;11275;52.488;13.462;2023-04-09T07:47:33;25.00;;;20.33;;
22211;SDS011;11275;52.488;13.462;2023-04-09T07:49:59;24.83;;;20.50;;
22211;SDS011;11275;52.488;13.462;2023-04-09T07:52:24;26.98;;;21.20;;
22211;SDS011;11275;52.488;13.462;2023-04-09T07:54:51;28.67;;;23.45;;
22211;SDS011;11275;52.488;13.462;2023-04-09T07:57:16;28.33;;;22.15;;
22211;SDS011;11275;52.488;13.462;2023-04-09T07:59:42;25.35;;;22.10;;
22211;SDS011;11275;52.488;13.462;2023-04-09T08:02:07;26.05;;;20.60;;
22211;SDS011;11275;52.488;13.462;2023-04-09T08:04:33;25.38;;;20.52;;
22211;SDS011;11275;52.488;13.462;2023-04-09T08:06:59;25.88;;;21.48;;
22211;SDS011;11275;52.488;13.462;2023-04-09T08:09:24;25.23;;;20.17;;
22211;SDS011;11275;52.488;13.462;2023-04-09T08:11:50;24.23;;;19.70;;
22211;SDS011;11275;52.488;13.462;2023-04-09T08:14:16;24.90;;;20.23;;
22211;SDS011;11275;52.488;13.462;2023-04-09T08:16:43;24.83;;;19.73;;
22211;SDS011;11275;52.488;13.462;2023-04-09T08:19:11;24.05;;;20.25;;
22211;SDS011;11275;52.488;13.462;2023-04-09T08:21:37;25.55;;;21.02;;
22211;SDS011;11275;52.488;13.462;2023-04-09T08:24:06;26.20;;;20.38;;
22211;SDS011;11275;52.488;13.462;2023-04-09T08:26:35;26.45;;;21.13;;
22211;SDS011;11275;52.488;13.462;2023-04-09T08:29:04;23.98;;;19.88;;
22211;SDS011;11275;52.488;13.462;2023-04-09T08:31:30;23.17;;;19.73;;
22211;SDS011;11275;52.488;13.462;2023-04-09T08:33:55;26.33;;;20.95;;
22211;SDS011;11275;52.488;13.462;2023-04-09T08:36:21;24.45;;;20.17;;
22211;SDS011;11275;52.488;13.462;2023-04-09T08:38:47;24.30;;;20.92;;
22211;SDS011;11275;52.488;13.462;2023-04-09T08:41:16;23.15;;;20.20;;
22211;SDS011;11275;52.488;13.462;2023-04-09T08:43:47;25.10;;;20.15;;
22211;SDS011;11275;52.488;13.462;2023-04-09T08:46:13;25.45;;;20.88;;
22211;SDS011;11275;52.488;13.462;2023-04-09T08:48:44;28.38;;;21.00;;
22211;SDS011;11275;52.488;13.462;2023-04-09T08:51:12;23.13;;;19.85;;
22211;SDS011;11275;52.488;13.462;2023-04-09T08:53:42;22.88;;;19.83;;
22211;SDS011;11275;52.488;13.462;2023-04-09T08:56:14;24.00;;;20.00;;
22211;SDS011;11275;52.488;13.462;2023-04-09T08:58:43;24.52;;;20.42;;
22211;SDS011;11275;52.488;13.462;2023-04-09T09:04:06;24.17;;;19.70;;
22211;SDS011;11275;52.488;13.462;2023-04-09T09:06:33;23.05;;;20.10;;
22211;SDS011;11275;52.488;13.462;2023-04-09T09:11:32;25.42;;;21.23;;
22211;SDS011;11275;52.488;13.462;2023-04-09T09:13:59;26.20;;;22.08;;
22211;SDS011;11275;52.488;13.462;2023-04-09T09:16:26;25.60;;;21.73;;
22211;SDS011;11275;52.488;13.462;2023-04-09T09:18:51;25.70;;;21.33;;
22211;SDS011;11275;52.488;13.462;2023-04-09T09:21:17;25.88;;;21.77;;
22211;SDS011;11275;52.488;13.462;2023-04-09T09:23:43;24.30;;;20.55;;
22211;SDS011;11275;52.488;13.462;2023-04-09T09:26:13;24.55;;;20.83;;
22211;SDS011;11275;52.488;13.462;2023-04-09T09:28:46;23.65;;;19.75;;
22211;SDS011;11275;52.488;13.462;2023-04-09T09:31:12;24.37;;;20.17;;
22211;SDS011;11275;52.488;13.462;2023-04-09T09:33:39;25.88;;;21.92;;
22211;SDS011;11275;52.488;13.462;2023-04-09T09:36:05;25.30;;;20.77;;
22211;SDS011;11275;52.488;13.462;2023-04-09T09:38:33;25.20;;;20.77;;
22211;SDS011;11275;52.488;13.462;2023-04-09T09:41:15;26.60;;;22.33;;
22211;SDS011;11275;52.488;13.462;2023-04-09T09:43:42;25.80;;;22.08;;
22211;SDS011;11275;52.488;13.462;2023-04-09T09:46:07;24.33;;;21.67;;
22211;SDS011;11275;52.488;13.462;2023-04-09T09:48:35;24.27;;;20.83;;
22211;SDS011;11275;52.488;13.462;2023-04-09T09:51:01;24.52;;;20.02;;
22211;SDS011;11275;52.488;13.462;2023-04-09T09:53:32;24.65;;;20.83;;
22211;SDS011;11275;52.488;13.462;2023-04-09T09:56:00;22.92;;;19.55;;
22211;SDS011;11275;52.488;13.462;2023-04-09T09:58:35;22.70;;;20.17;;
22211;SDS011;11275;52.488;13.462;2023-04-09T10:01:18;22.52;;;19.77;;
22211;SDS011;11275;52.488;13.462;2023-04-09T10:03:45;21.15;;;18.77;;
22211;SDS011;11275;52.488;13.462;2023-04-09T10:06:12;23.27;;;18.67;;
22211;SDS011;11275;52.488;13.462;2023-04-09T10:08:39;22.55;;;19.15;;
22211;SDS011;11275;52.488;13.462;2023-04-09T10:11:06;22.55;;;19.33;;
22211;SDS011;11275;52.488;13.462;2023-04-09T10:13:33;22.10;;;19.17;;
22211;SDS011;11275;52.488;13.462;2023-04-09T10:16:02;21.33;;;18.23;;
22211;SDS011;11275;52.488;13.462;2023-04-09T10:18:29;23.63;;;19.13;;
22211;SDS011;11275;52.488;13.462;2023-04-09T10:21:01;22.73;;;19.45;;
22211;SDS011;11275;52.488;13.462;2023-04-09T10:26:04;20.67;;;17.48;;
22211;SDS011;11275;52.488;13.462;2023-04-09T10:28:30;23.27;;;18.40;;
22211;SDS011;11275;52.488;13.462;2023-04-09T10:30:56;21.08;;;17.88;;
22211;SDS011;11275;52.488;13.462;2023-04-09T10:33:23;20.98;;;18.15;;
22211;SDS011;11275;52.488;13.462;2023-04-09T10:35:53;20.38;;;17.73;;
22211;SDS011;11275;52.488;13.462;2023-04-09T10:38:33;21.60;;;17.23;;
22211;SDS011;11275;52.488;13.462;2023-04-09T10:41:05;20.38;;;17.02;;
22211;SDS011;11275;52.488;13.462;2023-04-09T10:43:37;19.42;;;17.15;;
22211;SDS011;11275;52.488;13.462;2023-04-09T10:46:07;46.05;;;36.80;;
22211;SDS011;11275;52.488;13.462;2023-04-09T10:49:06;111.78;;;92.10;;
22211;SDS011;11275;52.488;13.462;2023-04-09T10:51:36;19.35;;;17.20;;
22211;SDS011;11275;52.488;13.462;2023-04-09T10:54:03;19.02;;;15.93;;
22211;SDS011;11275;52.488;13.462;2023-04-09T10:59:42;18.25;;;15.90;;
22211;SDS011;11275;52.488;13.462;2023-04-09T11:02:13;19.27;;;16.05;;
22211;SDS011;11275;52.488;13.462;2023-04-09T11:07:22;18.33;;;15.73;;
22211;SDS011;11275;52.488;13.462;2023-04-09T11:09:49;16.98;;;14.82;;
22211;SDS011;11275;52.488;13.462;2023-04-09T11:12:15;18.08;;;15.50;;
22211;SDS011;11275;52.488;13.462;2023-04-09T11:14:40;17.55;;;15.07;;
22211;SDS011;11275;52.488;13.462;2023-04-09T11:17:06;17.27;;;15.10;;
22211;SDS011;11275;52.488;13.462;2023-04-09T11:19:34;19.80;;;16.85;;
22211;SDS011;11275;52.488;13.462;2023-04-09T11:22:02;17.88;;;15.20;;
22211;SDS011;11275;52.488;13.462;2023-04-09T11:27:06;17.38;;;14.93;;
22211;SDS011;11275;52.488;13.462;2023-04-09T11:29:33;17.98;;;15.13;;
22211;SDS011;11275;52.488;13.462;2023-04-09T11:31:59;17.63;;;14.98;;
22211;SDS011;11275;52.488;13.462;2023-04-09T11:34:27;18.38;;;16.30;;
22211;SDS011;11275;52.488;13.462;2023-04-09T11:36:53;17.88;;;15.50;;
22211;SDS011;11275;52.488;13.462;2023-04-09T11:39:19;18.10;;;15.52;;
22211;SDS011;11275;52.488;13.462;2023-04-09T11:41:45;68.13;;;52.53;;
22211;SDS011;11275;52.488;13.462;2023-04-09T11:44:10;20.48;;;16.15;;
22211;SDS011;11275;52.488;13.462;2023-04-09T11:46:37;17.42;;;15.07;;
22211;SDS011;11275;52.488;13.462;2023-04-09T11:49:02;16.45;;;13.93;;
22211;SDS011;11275;52.488;13.462;2023-04-09T11:51:28;16.73;;;13.45;;
22211;SDS011;11275;52.488;13.462;2023-04-09T11:53:55;16.27;;;13.90;;
22211;SDS011;11275;52.488;13.462;2023-04-09T11:58:55;14.57;;;12.75;;
22211;SDS011;11275;52.488;13.462;2023-04-09T12:01:21;14.48;;;12.93;;
22211;SDS011;11275;52.488;13.462;2023-04-09T12:03:53;14.95;;;12.88;;
22211;SDS011;11275;52.488;13.462;2023-04-09T12:06:19;16.52;;;13.60;;
22211;SDS011;11275;52.488;13.462;2023-04-09T12:08:52;14.90;;;12.88;;
22211;SDS011;11275;52.488;13.462;2023-04-09T12:11:19;15.98;;;13.70;;
22211;SDS011;11275;52.488;13.462;2023-04-09T12:13:57;17.27;;;14.05;;
22211;SDS011;11275;52.488;13.462;2023-04-09T12:16:28;16.25;;;12.77;;
22211;SDS011;11275;52.488;13.462;2023-04-09T12:18:58;15.63;;;13.20;;
22211;SDS011;11275;52.488;13.462;2023-04-09T12:21:44;16.27;;;13.43;;
22211;SDS011;11275;52.488;13.462;2023-04-09T12:24:11;19.13;;;13.90;;
22211;SDS011;11275;52.488;13.462;2023-04-09T12:26:37;17.60;;;13.80;;
22211;SDS011;11275;52.488;13.462;2023-04-09T12:29:03;15.73;;;13.57;;
22211;SDS011;11275;52.488;13.462;2023-04-09T12:31:28;16.83;;;13.18;;
22211;SDS011;11275;52.488;13.462;2023-04-09T12:33:54;17.23;;;13.63;;
22211;SDS011;11275;52.488;13.462;2023-04-09T12:36:20;15.73;;;13.68;;
22211;SDS011;11275;52.488;13.462;2023-04-09T12:38:45;33.33;;;14.45;;
22211;SDS011;11275;52.488;13.462;2023-04-09T12:41:11;16.95;;;13.98;;
22211;SDS011;11275;52.488;13.462;2023-04-09T12:43:38;18.30;;;14.25;;
22211;SDS011;11275;52.488;13.462;2023-04-09T12:46:03;16.65;;;13.55;;
22211;SDS011;11275;52.488;13.462;2023-04-09T12:48:29;48.85;;;36.53;;
22211;SDS011;11275;52.488;13.462;2023-04-09T12:50:55;35.35;;;28.02;;
22211;SDS011;11275;52.488;13.462;2023-04-09T12:53:20;16.92;;;14.00;;
22211;SDS011;11275;52.488;13.462;2023-04-09T12:55:46;15.82;;;13.68;;
22211;SDS011;11275;52.488;13.462;2023-04-09T12:58:14;15.95;;;13.52;;
22211;SDS011;11275;52.488;13.462;2023-04-09T13:00:40;16.27;;;13.77;;
22211;SDS011;11275;52.488;13.462;2023-04-09T13:03:06;18.05;;;14.95;;
22211;SDS011;11275;52.488;13.462;2023-04-09T13:05:31;18.60;;;15.23;;
22211;SDS011;11275;52.488;13.462;2023-04-09T13:07:59;23.52;;;19.77;;
22211;SDS011;11275;52.488;13.462;2023-04-09T13:10:26;16.98;;;14.77;;
22211;SDS011;11275;52.488;13.462;2023-04-09T13:12:52;15.00;;;13.40;;
22211;SDS011;11275;52.488;13.462;2023-04-09T13:15:17;15.52;;;13.20;;
22211;SDS011;11275;52.488;13.462;2023-04-09T13:17:43;15.95;;;13.68;;
22211;SDS011;11275;52.488;13.462;2023-04-09T13:20:09;14.52;;;12.68;;
22211;SDS011;11275;52.488;13.462;2023-04-09T13:22:35;16.10;;;14.40;;
22211;SDS011;11275;52.488;13.462;2023-04-09T13:25:00;15.45;;;13.23;;
22211;SDS011;11275;52.488;13.462;2023-04-09T13:27:27;17.23;;;13.25;;
22211;SDS011;11275;52.488;13.462;2023-04-09T13:29:53;19.48;;;13.75;;
22211;SDS011;11275;52.488;13.462;2023-04-09T13:32:19;18.17;;;14.23;;
22211;SDS011;11275;52.488;13.462;2023-04-09T13:34:46;16.17;;;13.60;;
22211;SDS011;11275;52.488;13.462;2023-04-09T13:37:11;16.33;;;13.25;;
22211;SDS011;11275;52.488;13.462;2023-04-09T13:39:37;15.68;;;13.10;;
22211;SDS011;11275;52.488;13.462;2023-04-09T13:42:03;16.63;;;13.38;;
22211;SDS011;11275;52.488;13.462;2023-04-09T13:44:28;15.07;;;12.57;;
22211;SDS011;11275;52.488;13.462;2023-04-09T13:46:54;14.85;;;12.82;;
22211;SDS011;11275;52.488;13.462;2023-04-09T13:49:19;14.40;;;12.60;;
22211;SDS011;11275;52.488;13.462;2023-04-09T13:51:45;16.15;;;12.85;;
22211;SDS011;11275;52.488;13.462;2023-04-09T13:54:12;15.38;;;13.02;;
22211;SDS011;11275;52.488;13.462;2023-04-09T13:56:38;15.95;;;13.63;;
22211;SDS011;11275;52.488;13.462;2023-04-09T13:59:04;16.80;;;14.13;;
22211;SDS011;11275;52.488;13.462;2023-04-09T14:01:30;15.70;;;13.52;;
22211;SDS011;11275;52.488;13.462;2023-04-09T14:03:56;15.32;;;13.55;;
22211;SDS011;11275;52.488;13.462;2023-04-09T14:06:21;14.45;;;12.70;;
22211;SDS011;11275;52.488;13.462;2023-04-09T14:08:47;14.80;;;12.18;;
22211;SDS011;11275;52.488;13.462;2023-04-09T14:11:13;15.15;;;12.32;;
22211;SDS011;11275;52.488;13.462;2023-04-09T14:13:40;14.27;;;12.13;;
22211;SDS011;11275;52.488;13.462;2023-04-09T14:16:06;15.25;;;12.55;;
22211;SDS011;11275;52.488;13.462;2023-04-09T14:18:32;14.88;;;11.95;;
22211;SDS011;11275;52.488;13.462;2023-04-09T14:20:58;13.98;;;12.48;;
22211;SDS011;11275;52.488;13.462;2023-04-09T14:23:26;13.52;;;11.52;;
22211;SDS011;11275;52.488;13.462;2023-04-09T14:25:52;12.35;;;10.75;;
22211;SDS011;11275;52.488;13.462;2023-04-09T14:28:20;12.68;;;11.23;;
22211;SDS011;11275;52.488;13.462;2023-04-09T14:30:46;13.73;;;11.45;;
22211;SDS011;11275;52.488;13.462;2023-04-09T14:33:12;14.95;;;12.20;;
22211;SDS011;11275;52.488;13.462;2023-04-09T14:35:37;13.27;;;11.45;;